Veni Vi — LD9966 — position and weather

sailwx.info

Track history (hours):
 
Tides and Currents Weather Stations Pressure Air Temp Water Temp Dewpoint Dewpoint Depression Visibility Wind Speed Wind Dir Waves Ship Positions

Veni Vi

Last reported at 2016-Aug-05 10:33 UTC. Time now 2016-Aug-30 09:05 UTC.
Position N 59°47' E 005°20'.
Warning: this ship's position is 24 days out of date.

Length 13 m.

Type: Sailing vessel. MMSI: 257827490.

Date/timePositionNaut miles runAvg speedWind from/ knotsBaromVisibWave heightAir tempDewpointWater temp
2016-Aug-05 10:33N 59°47' E 005°20'5 4.9
2016-Aug-05 09:33N 59°42' E 005°23'0 0.0
2016-Aug-05 08:33N 59°42' E 005°23'0 0.0
2016-Aug-05 07:33N 59°42' E 005°23'0 0.0
2016-Aug-05 06:33N 59°42' E 005°23'0 0.0
2016-Aug-05 04:33N 59°42' E 005°23'0 0.0
2016-Aug-05 03:33N 59°42' E 005°23'0 0.0
2016-Aug-05 02:33N 59°42' E 005°23'0 0.0
2016-Aug-05 01:33N 59°42' E 005°23'0 0.0
2016-Aug-05 00:33N 59°42' E 005°23'0 0.0
2016-Aug-04 23:33N 59°42' E 005°23'0 0.0
2016-Aug-04 22:33N 59°42' E 005°23'0 0.0
2016-Aug-04 21:33N 59°42' E 005°23'0 0.0
2016-Aug-04 20:33N 59°42' E 005°23'0 0.0
2016-Aug-04 19:32N 59°42' E 005°23'4 3.9
2016-Aug-04 18:33N 59°39' E 005°20'28 5.6
2016-Aug-04 13:30N 59°10' E 005°22'7 7.0
2016-Aug-04 12:33N 59°06' E 005°31'8 7.7
2016-Aug-04 11:33N 59°00' E 005°41'2 1.8
2016-Aug-04 10:21N 58°58' E 005°44'0 0.0
2016-Aug-04 09:21N 58°58' E 005°44'0 0.0
2016-Aug-04 08:03N 58°58' E 005°44'0 0.0
2016-Aug-04 06:33N 58°58' E 005°44'0 0.0
2016-Aug-04 04:33N 58°58' E 005°44'0 0.0
2016-Aug-04 03:33N 58°58' E 005°44'0 0.0
2016-Aug-04 02:27N 58°58' E 005°44'0 0.0
2016-Aug-04 01:30N 58°58' E 005°44'0 0.0
2016-Aug-04 00:24N 58°58' E 005°44'0 0.0
2016-Aug-03 23:30N 58°58' E 005°44'0 0.0
2016-Aug-03 22:33N 58°58' E 005°44'0 0.0
2016-Aug-03 21:21N 58°58' E 005°44'0 0.0
2016-Aug-03 20:33N 58°58' E 005°44'0 0.0
2016-Aug-03 19:06N 58°58' E 005°44'3 5.8
2016-Aug-03 18:33N 59°01' E 005°40'5 5.4
2016-Aug-03 17:33N 59°01' E 005°29'6 6.5
2016-Aug-03 16:33N 58°55' E 005°25'7 7.0
2016-Aug-03 15:33N 58°48' E 005°25'8 7.5
2016-Aug-03 14:33N 58°41' E 005°31'14 6.4
2016-Aug-03 12:24N 58°29' E 005°45'7 7.7
2016-Aug-03 11:33N 58°25' E 005°54'11 7.8
2016-Aug-03 10:11N 58°18' E 006°11'5 8.6
2016-Aug-03 09:33N 58°14' E 006°18'9 8.7
2016-Aug-03 08:33N 58°08' E 006°29'9 8.5
2016-Aug-03 07:33N 58°03' E 006°42'9 8.7
2016-Aug-03 06:34N 57°60' E 006°57'  
2016-Jul-29 12:17N 58°11' E 008°22'3 0.2
2016-Jul-28 18:23N 58°14' E 008°24'4 5.3
2016-Jul-28 17:33N 58°16' E 008°32'5 4.0
2016-Jul-28 16:24N 58°20' E 008°37'50 1.9
2016-Jul-27 14:10N 58°37' E 010°06'5 8.8
2016-Jul-27 13:33N 58°35' E 010°16'13 8.7
2016-Jul-27 12:04N 58°31' E 010°40'5 8.3
2016-Jul-27 11:31N 58°30' E 010°48'7 7.6
2016-Jul-27 10:32N 58°26' E 010°59'8 7.7
2016-Jul-27 09:33N 58°21' E 011°11'1 0.1
2016-Jul-26 21:31N 58°21' E 011°14'0 0.0
2016-Jul-26 15:32N 58°21' E 011°14'0 0.0
2016-Jul-26 14:32N 58°21' E 011°14'0 0.2
2016-Jul-26 13:33N 58°21' E 011°14'6 5.8
2016-Jul-26 12:33N 58°16' E 011°09'8 7.9
2016-Jul-26 11:32N 58°08' E 011°04'7 7.4
2016-Jul-26 10:33N 58°02' E 010°58'  
Track history (hours):
 
Tides and Currents Weather Stations Pressure Air Temp Water Temp Dewpoint Dewpoint Depression Visibility Wind Speed Wind Dir Waves Ship Positions

Veni Vi

Last reported at 2016-Aug-05 10:33 UTC. Time now 2016-Aug-30 09:05 UTC.
Position N 59°47' E 005°20'.
Warning: this ship's position is 24 days out of date.

Length 13 m.

Type: Sailing vessel. MMSI: 257827490.

Date/timePositionNaut miles runAvg speedWind from/ knotsBaromVisibWave heightAir tempDewpointWater temp
2016-Aug-05 10:33N 59°47' E 005°20'5 4.9
2016-Aug-05 09:33N 59°42' E 005°23'0 0.0
2016-Aug-05 08:33N 59°42' E 005°23'0 0.0
2016-Aug-05 07:33N 59°42' E 005°23'0 0.0
2016-Aug-05 06:33N 59°42' E 005°23'0 0.0
2016-Aug-05 04:33N 59°42' E 005°23'0 0.0
2016-Aug-05 03:33N 59°42' E 005°23'0 0.0
2016-Aug-05 02:33N 59°42' E 005°23'0 0.0
2016-Aug-05 01:33N 59°42' E 005°23'0 0.0
2016-Aug-05 00:33N 59°42' E 005°23'0 0.0
2016-Aug-04 23:33N 59°42' E 005°23'0 0.0
2016-Aug-04 22:33N 59°42' E 005°23'0 0.0
2016-Aug-04 21:33N 59°42' E 005°23'0 0.0
2016-Aug-04 20:33N 59°42' E 005°23'0 0.0
2016-Aug-04 19:32N 59°42' E 005°23'4 3.9
2016-Aug-04 18:33N 59°39' E 005°20'28 5.6
2016-Aug-04 13:30N 59°10' E 005°22'7 7.0
2016-Aug-04 12:33N 59°06' E 005°31'8 7.7
2016-Aug-04 11:33N 59°00' E 005°41'2 1.8
2016-Aug-04 10:21N 58°58' E 005°44'0 0.0
2016-Aug-04 09:21N 58°58' E 005°44'0 0.0
2016-Aug-04 08:03N 58°58' E 005°44'0 0.0
2016-Aug-04 06:33N 58°58' E 005°44'0 0.0
2016-Aug-04 04:33N 58°58' E 005°44'0 0.0
2016-Aug-04 03:33N 58°58' E 005°44'0 0.0
2016-Aug-04 02:27N 58°58' E 005°44'0 0.0
2016-Aug-04 01:30N 58°58' E 005°44'0 0.0
2016-Aug-04 00:24N 58°58' E 005°44'0 0.0
2016-Aug-03 23:30N 58°58' E 005°44'0 0.0
2016-Aug-03 22:33N 58°58' E 005°44'0 0.0
2016-Aug-03 21:21N 58°58' E 005°44'0 0.0
2016-Aug-03 20:33N 58°58' E 005°44'0 0.0
2016-Aug-03 19:06N 58°58' E 005°44'3 5.8
2016-Aug-03 18:33N 59°01' E 005°40'5 5.4
2016-Aug-03 17:33N 59°01' E 005°29'6 6.5
2016-Aug-03 16:33N 58°55' E 005°25'7 7.0
2016-Aug-03 15:33N 58°48' E 005°25'8 7.5
2016-Aug-03 14:33N 58°41' E 005°31'14 6.4
2016-Aug-03 12:24N 58°29' E 005°45'7 7.7
2016-Aug-03 11:33N 58°25' E 005°54'11 7.8
2016-Aug-03 10:11N 58°18' E 006°11'5 8.6
2016-Aug-03 09:33N 58°14' E 006°18'9 8.7
2016-Aug-03 08:33N 58°08' E 006°29'9 8.5
2016-Aug-03 07:33N 58°03' E 006°42'9 8.7
2016-Aug-03 06:34N 57°60' E 006°57'  
2016-Jul-29 12:17N 58°11' E 008°22'3 0.2
2016-Jul-28 18:23N 58°14' E 008°24'4 5.3
2016-Jul-28 17:33N 58°16' E 008°32'5 4.0
2016-Jul-28 16:24N 58°20' E 008°37'50 1.9
2016-Jul-27 14:10N 58°37' E 010°06'5 8.8
2016-Jul-27 13:33N 58°35' E 010°16'13 8.7
2016-Jul-27 12:04N 58°31' E 010°40'5 8.3
2016-Jul-27 11:31N 58°30' E 010°48'7 7.6
2016-Jul-27 10:32N 58°26' E 010°59'8 7.7
2016-Jul-27 09:33N 58°21' E 011°11'1 0.1
2016-Jul-26 21:31N 58°21' E 011°14'0 0.0
2016-Jul-26 15:32N 58°21' E 011°14'0 0.0
2016-Jul-26 14:32N 58°21' E 011°14'0 0.2
2016-Jul-26 13:33N 58°21' E 011°14'6 5.8
2016-Jul-26 12:33N 58°16' E 011°09'8 7.9
2016-Jul-26 11:32N 58°08' E 011°04'7 7.4
2016-Jul-26 10:33N 58°02' E 010°58'  

Dump ship's entire track history